Terminal Aerodrome Forecast
Issued by NWS

Home | Current Version | Previous Version | Text Only | Print | Product List | Glossary Off
Versions: 1 2 3 4 5 6 7 8 9 10 11 12 13 14 15 16 17 18 19 20

616
FTUS43 KGRB 252024 AAA
TAFMTW
TAF AMD
KMTW 252024Z 2520/2618 06013G23KT 6SM -RA OVC010
     FM260000 06011KT 4SM RA BR OVC008
     FM260800 07008KT 2SM -RA BR OVC003=

USA.gov is the U.S. government's official web portal to all federal, state and local government web resources and services.